sensor_id;sensor_type;location;lat;lon;timestamp;temperature;humidity
19050;DHT22;9657;45.940;12.840;2022-12-13T00:01:27;10.80;70.20
19050;DHT22;9657;45.940;12.840;2022-12-13T00:03:56;10.80;70.20
19050;DHT22;9657;45.940;12.840;2022-12-13T00:06:24;10.80;70.10
19050;DHT22;9657;45.940;12.840;2022-12-13T00:08:51;10.80;70.20
19050;DHT22;9657;45.940;12.840;2022-12-13T00:11:18;10.80;70.10
19050;DHT22;9657;45.940;12.840;2022-12-13T00:13:46;10.80;70.10
19050;DHT22;9657;45.940;12.840;2022-12-13T00:16:16;10.80;70.10
19050;DHT22;9657;45.940;12.840;2022-12-13T00:18:46;10.80;70.10
19050;DHT22;9657;45.940;12.840;2022-12-13T00:21:14;10.80;70.10
19050;DHT22;9657;45.940;12.840;2022-12-13T00:23:42;10.80;70.10
19050;DHT22;9657;45.940;12.840;2022-12-13T00:26:12;10.80;70.10
19050;DHT22;9657;45.940;12.840;2022-12-13T00:28:39;10.80;70.10
19050;DHT22;9657;45.940;12.840;2022-12-13T00:31:08;10.80;70.10
19050;DHT22;9657;45.940;12.840;2022-12-13T00:33:36;10.80;70.00
19050;DHT22;9657;45.940;12.840;2022-12-13T00:36:04;10.80;70.10
19050;DHT22;9657;45.940;12.840;2022-12-13T00:38:32;10.70;70.00
19050;DHT22;9657;45.940;12.840;2022-12-13T00:41:01;10.80;70.00
19050;DHT22;9657;45.940;12.840;2022-12-13T00:43:34;10.80;70.10
19050;DHT22;9657;45.940;12.840;2022-12-13T00:46:01;10.80;70.00
19050;DHT22;9657;45.940;12.840;2022-12-13T00:48:30;10.80;70.00
19050;DHT22;9657;45.940;12.840;2022-12-13T00:50:57;10.80;70.00
19050;DHT22;9657;45.940;12.840;2022-12-13T00:53:24;10.80;70.00
19050;DHT22;9657;45.940;12.840;2022-12-13T00:55:51;10.80;70.00
19050;DHT22;9657;45.940;12.840;2022-12-13T00:58:18;10.70;70.00
19050;DHT22;9657;45.940;12.840;2022-12-13T01:00:45;10.80;70.00
19050;DHT22;9657;45.940;12.840;2022-12-13T01:03:12;10.70;69.90
19050;DHT22;9657;45.940;12.840;2022-12-13T01:05:51;10.70;69.90
19050;DHT22;9657;45.940;12.840;2022-12-13T01:08:18;10.70;69.90
19050;DHT22;9657;45.940;12.840;2022-12-13T01:10:45;10.70;69.90
19050;DHT22;9657;45.940;12.840;2022-12-13T01:13:14;10.70;69.80
19050;DHT22;9657;45.940;12.840;2022-12-13T01:15:42;10.70;69.90
19050;DHT22;9657;45.940;12.840;2022-12-13T01:18:10;10.70;69.90
19050;DHT22;9657;45.940;12.840;2022-12-13T01:20:38;10.70;69.90
19050;DHT22;9657;45.940;12.840;2022-12-13T01:23:06;10.70;69.80
19050;DHT22;9657;45.940;12.840;2022-12-13T01:25:36;10.70;69.80
19050;DHT22;9657;45.940;12.840;2022-12-13T01:28:03;10.70;69.80
19050;DHT22;9657;45.940;12.840;2022-12-13T01:30:30;10.70;69.80
19050;DHT22;9657;45.940;12.840;2022-12-13T01:32:58;10.70;69.80
19050;DHT22;9657;45.940;12.840;2022-12-13T01:35:25;10.70;69.80
19050;DHT22;9657;45.940;12.840;2022-12-13T01:37:52;10.70;69.90
19050;DHT22;9657;45.940;12.840;2022-12-13T01:40:21;10.70;69.80
19050;DHT22;9657;45.940;12.840;2022-12-13T01:42:48;10.70;69.80
19050;DHT22;9657;45.940;12.840;2022-12-13T01:45:22;10.70;69.80
19050;DHT22;9657;45.940;12.840;2022-12-13T01:47:51;10.70;69.80
19050;DHT22;9657;45.940;12.840;2022-12-13T01:50:25;10.70;69.80
19050;DHT22;9657;45.940;12.840;2022-12-13T01:52:54;10.70;69.80
19050;DHT22;9657;45.940;12.840;2022-12-13T01:55:24;10.70;69.80
19050;DHT22;9657;45.940;12.840;2022-12-13T01:57:54;10.70;69.80
19050;DHT22;9657;45.940;12.840;2022-12-13T02:02:58;10.70;69.80
19050;DHT22;9657;45.940;12.840;2022-12-13T02:05:29;10.70;69.80
19050;DHT22;9657;45.940;12.840;2022-12-13T02:07:59;10.60;69.70
19050;DHT22;9657;45.940;12.840;2022-12-13T02:10:29;10.60;69.70
19050;DHT22;9657;45.940;12.840;2022-12-13T02:12:56;10.60;69.70
19050;DHT22;9657;45.940;12.840;2022-12-13T02:15:26;10.60;69.70
19050;DHT22;9657;45.940;12.840;2022-12-13T02:18:17;10.60;69.70
19050;DHT22;9657;45.940;12.840;2022-12-13T02:21:14;10.70;69.70
19050;DHT22;9657;45.940;12.840;2022-12-13T02:24:22;10.60;69.60
19050;DHT22;9657;45.940;12.840;2022-12-13T02:27:08;10.60;69.60
19050;DHT22;9657;45.940;12.840;2022-12-13T02:30:16;10.60;69.70
19050;DHT22;9657;45.940;12.840;2022-12-13T02:33:11;10.60;69.60
19050;DHT22;9657;45.940;12.840;2022-12-13T02:35:48;10.60;69.60
19050;DHT22;9657;45.940;12.840;2022-12-13T02:38:25;10.60;69.70
19050;DHT22;9657;45.940;12.840;2022-12-13T02:40:59;10.60;69.70
19050;DHT22;9657;45.940;12.840;2022-12-13T02:43:29;10.60;69.70
19050;DHT22;9657;45.940;12.840;2022-12-13T02:46:00;10.60;69.60
19050;DHT22;9657;45.940;12.840;2022-12-13T02:48:31;10.60;69.60
19050;DHT22;9657;45.940;12.840;2022-12-13T02:50:59;10.60;69.60
19050;DHT22;9657;45.940;12.840;2022-12-13T02:53:29;10.60;69.60
19050;DHT22;9657;45.940;12.840;2022-12-13T02:55:56;10.60;69.60
19050;DHT22;9657;45.940;12.840;2022-12-13T02:58:26;10.60;69.60
19050;DHT22;9657;45.940;12.840;2022-12-13T03:01:02;10.60;69.70
19050;DHT22;9657;45.940;12.840;2022-12-13T03:03:41;10.60;69.60
19050;DHT22;9657;45.940;12.840;2022-12-13T03:06:23;10.60;69.60
19050;DHT22;9657;45.940;12.840;2022-12-13T03:09:10;10.60;69.60
19050;DHT22;9657;45.940;12.840;2022-12-13T03:12:02;10.60;69.60
19050;DHT22;9657;45.940;12.840;2022-12-13T03:14:55;10.60;69.60
19050;DHT22;9657;45.940;12.840;2022-12-13T03:17:26;10.60;69.60
19050;DHT22;9657;45.940;12.840;2022-12-13T03:19:53;10.60;69.60
19050;DHT22;9657;45.940;12.840;2022-12-13T03:22:20;10.60;69.60
19050;DHT22;9657;45.940;12.840;2022-12-13T03:24:47;10.60;69.60
19050;DHT22;9657;45.940;12.840;2022-12-13T03:27:15;10.60;69.60
19050;DHT22;9657;45.940;12.840;2022-12-13T03:29:42;10.60;69.60
19050;DHT22;9657;45.940;12.840;2022-12-13T03:32:09;10.60;69.60
19050;DHT22;9657;45.940;12.840;2022-12-13T03:34:37;10.60;69.60
19050;DHT22;9657;45.940;12.840;2022-12-13T03:37:04;10.60;69.50
19050;DHT22;9657;45.940;12.840;2022-12-13T03:39:31;10.60;69.60
19050;DHT22;9657;45.940;12.840;2022-12-13T03:41:59;10.60;69.60
19050;DHT22;9657;45.940;12.840;2022-12-13T03:44:26;10.50;69.50
19050;DHT22;9657;45.940;12.840;2022-12-13T03:46:53;10.50;69.50
19050;DHT22;9657;45.940;12.840;2022-12-13T03:49:20;10.50;69.50
19050;DHT22;9657;45.940;12.840;2022-12-13T03:51:48;10.50;69.50
19050;DHT22;9657;45.940;12.840;2022-12-13T03:54:15;10.50;69.40
19050;DHT22;9657;45.940;12.840;2022-12-13T03:56:42;10.50;69.40
19050;DHT22;9657;45.940;12.840;2022-12-13T03:59:09;10.50;69.40
19050;DHT22;9657;45.940;12.840;2022-12-13T04:01:36;10.50;69.50
19050;DHT22;9657;45.940;12.840;2022-12-13T04:04:03;10.50;69.40
19050;DHT22;9657;45.940;12.840;2022-12-13T04:06:30;10.50;69.40
19050;DHT22;9657;45.940;12.840;2022-12-13T04:08:59;10.50;69.40
19050;DHT22;9657;45.940;12.840;2022-12-13T04:11:26;10.50;69.40
19050;DHT22;9657;45.940;12.840;2022-12-13T04:14:19;10.50;69.40
19050;DHT22;9657;45.940;12.840;2022-12-13T04:16:46;10.50;69.40
19050;DHT22;9657;45.940;12.840;2022-12-13T04:19:13;10.50;69.30
19050;DHT22;9657;45.940;12.840;2022-12-13T04:21:40;10.50;69.30
19050;DHT22;9657;45.940;12.840;2022-12-13T04:24:08;10.50;69.30
19050;DHT22;9657;45.940;12.840;2022-12-13T04:26:35;10.50;69.30
19050;DHT22;9657;45.940;12.840;2022-12-13T04:29:02;10.50;69.30
19050;DHT22;9657;45.940;12.840;2022-12-13T04:31:29;10.50;69.30
19050;DHT22;9657;45.940;12.840;2022-12-13T04:33:57;10.50;69.30
19050;DHT22;9657;45.940;12.840;2022-12-13T04:36:24;10.50;69.30
19050;DHT22;9657;45.940;12.840;2022-12-13T04:38:51;10.50;69.30
19050;DHT22;9657;45.940;12.840;2022-12-13T04:41:20;10.50;69.30
19050;DHT22;9657;45.940;12.840;2022-12-13T04:43:50;10.50;69.30
19050;DHT22;9657;45.940;12.840;2022-12-13T04:46:17;10.50;69.30
19050;DHT22;9657;45.940;12.840;2022-12-13T04:48:44;10.50;69.30
19050;DHT22;9657;45.940;12.840;2022-12-13T04:51:11;10.50;69.30
19050;DHT22;9657;45.940;12.840;2022-12-13T04:53:38;10.50;69.30
19050;DHT22;9657;45.940;12.840;2022-12-13T04:56:06;10.50;69.30
19050;DHT22;9657;45.940;12.840;2022-12-13T04:58:34;10.40;69.20
19050;DHT22;9657;45.940;12.840;2022-12-13T05:01:04;10.50;69.30
19050;DHT22;9657;45.940;12.840;2022-12-13T05:03:32;10.50;69.40
19050;DHT22;9657;45.940;12.840;2022-12-13T05:06:02;10.50;69.30
19050;DHT22;9657;45.940;12.840;2022-12-13T05:08:29;10.40;69.20
19050;DHT22;9657;45.940;12.840;2022-12-13T05:10:56;10.40;69.20
19050;DHT22;9657;45.940;12.840;2022-12-13T05:13:23;10.40;69.20
19050;DHT22;9657;45.940;12.840;2022-12-13T05:15:55;10.40;69.20
19050;DHT22;9657;45.940;12.840;2022-12-13T05:18:22;10.40;69.20
19050;DHT22;9657;45.940;12.840;2022-12-13T05:20:49;10.40;69.20
19050;DHT22;9657;45.940;12.840;2022-12-13T05:23:17;10.40;69.30
19050;DHT22;9657;45.940;12.840;2022-12-13T05:25:44;10.40;69.20
19050;DHT22;9657;45.940;12.840;2022-12-13T05:28:11;10.40;69.20
19050;DHT22;9657;45.940;12.840;2022-12-13T05:30:38;10.40;69.20
19050;DHT22;9657;45.940;12.840;2022-12-13T05:33:07;10.40;69.20
19050;DHT22;9657;45.940;12.840;2022-12-13T05:35:35;10.40;69.20
19050;DHT22;9657;45.940;12.840;2022-12-13T05:38:03;10.40;69.20
19050;DHT22;9657;45.940;12.840;2022-12-13T05:40:31;10.40;69.20
19050;DHT22;9657;45.940;12.840;2022-12-13T05:42:58;10.40;69.20
19050;DHT22;9657;45.940;12.840;2022-12-13T05:45:25;10.40;69.20
19050;DHT22;9657;45.940;12.840;2022-12-13T05:47:52;10.40;69.20
19050;DHT22;9657;45.940;12.840;2022-12-13T05:50:21;10.40;69.10
19050;DHT22;9657;45.940;12.840;2022-12-13T05:52:48;10.40;69.10
19050;DHT22;9657;45.940;12.840;2022-12-13T05:55:15;10.40;69.20
19050;DHT22;9657;45.940;12.840;2022-12-13T05:57:42;10.40;69.10
19050;DHT22;9657;45.940;12.840;2022-12-13T06:00:10;10.40;69.20
19050;DHT22;9657;45.940;12.840;2022-12-13T06:02:38;10.40;69.20
19050;DHT22;9657;45.940;12.840;2022-12-13T06:05:06;10.40;69.20
19050;DHT22;9657;45.940;12.840;2022-12-13T06:07:36;10.40;69.20
19050;DHT22;9657;45.940;12.840;2022-12-13T06:10:04;10.40;69.20
19050;DHT22;9657;45.940;12.840;2022-12-13T06:12:33;10.40;69.10
19050;DHT22;9657;45.940;12.840;2022-12-13T06:15:00;10.40;69.20
19050;DHT22;9657;45.940;12.840;2022-12-13T06:17:30;10.40;69.20
19050;DHT22;9657;45.940;12.840;2022-12-13T06:19:57;10.40;69.20
19050;DHT22;9657;45.940;12.840;2022-12-13T06:22:24;10.40;69.20
19050;DHT22;9657;45.940;12.840;2022-12-13T06:24:53;10.40;70.00
19050;DHT22;9657;45.940;12.840;2022-12-13T06:27:20;10.40;69.10
19050;DHT22;9657;45.940;12.840;2022-12-13T06:29:47;10.40;69.20
19050;DHT22;9657;45.940;12.840;2022-12-13T06:32:14;10.40;69.20
19050;DHT22;9657;45.940;12.840;2022-12-13T06:34:41;10.40;69.10
19050;DHT22;9657;45.940;12.840;2022-12-13T06:37:11;10.40;69.20
19050;DHT22;9657;45.940;12.840;2022-12-13T06:39:39;10.40;69.10
19050;DHT22;9657;45.940;12.840;2022-12-13T06:42:14;10.40;69.10
19050;DHT22;9657;45.940;12.840;2022-12-13T06:44:42;10.30;69.00
19050;DHT22;9657;45.940;12.840;2022-12-13T06:47:09;10.30;69.10
19050;DHT22;9657;45.940;12.840;2022-12-13T06:49:37;10.40;69.10
19050;DHT22;9657;45.940;12.840;2022-12-13T06:52:04;10.30;69.10
19050;DHT22;9657;45.940;12.840;2022-12-13T06:54:31;10.30;69.10
19050;DHT22;9657;45.940;12.840;2022-12-13T06:56:59;10.30;69.10
19050;DHT22;9657;45.940;12.840;2022-12-13T06:59:28;10.30;69.10
19050;DHT22;9657;45.940;12.840;2022-12-13T07:01:55;10.30;69.10
19050;DHT22;9657;45.940;12.840;2022-12-13T07:04:22;10.30;69.10
19050;DHT22;9657;45.940;12.840;2022-12-13T07:06:49;10.30;69.00
19050;DHT22;9657;45.940;12.840;2022-12-13T07:09:16;10.30;69.00
19050;DHT22;9657;45.940;12.840;2022-12-13T07:11:43;10.30;69.10
19050;DHT22;9657;45.940;12.840;2022-12-13T07:14:10;10.40;69.20
19050;DHT22;9657;45.940;12.840;2022-12-13T07:16:38;10.30;69.20
19050;DHT22;9657;45.940;12.840;2022-12-13T07:19:05;10.30;69.20
19050;DHT22;9657;45.940;12.840;2022-12-13T07:21:32;10.30;69.20
19050;DHT22;9657;45.940;12.840;2022-12-13T07:24:01;10.30;69.10
19050;DHT22;9657;45.940;12.840;2022-12-13T07:26:28;10.30;69.10
19050;DHT22;9657;45.940;12.840;2022-12-13T07:28:55;10.30;69.20
19050;DHT22;9657;45.940;12.840;2022-12-13T07:31:23;10.30;69.20
19050;DHT22;9657;45.940;12.840;2022-12-13T07:33:51;10.30;69.20
19050;DHT22;9657;45.940;12.840;2022-12-13T07:36:20;10.30;69.20
19050;DHT22;9657;45.940;12.840;2022-12-13T07:38:50;10.30;69.20
19050;DHT22;9657;45.940;12.840;2022-12-13T07:41:17;10.30;69.20
19050;DHT22;9657;45.940;12.840;2022-12-13T07:43:44;10.30;69.20
19050;DHT22;9657;45.940;12.840;2022-12-13T07:46:11;10.30;69.20
19050;DHT22;9657;45.940;12.840;2022-12-13T07:48:39;10.30;69.10
19050;DHT22;9657;45.940;12.840;2022-12-13T07:51:09;10.30;69.20
19050;DHT22;9657;45.940;12.840;2022-12-13T07:53:38;10.30;69.10
19050;DHT22;9657;45.940;12.840;2022-12-13T07:56:08;10.30;69.20
19050;DHT22;9657;45.940;12.840;2022-12-13T07:58:35;10.30;69.20
19050;DHT22;9657;45.940;12.840;2022-12-13T08:01:05;10.30;69.10
19050;DHT22;9657;45.940;12.840;2022-12-13T08:03:32;10.30;69.20
19050;DHT22;9657;45.940;12.840;2022-12-13T08:06:00;10.30;69.20
19050;DHT22;9657;45.940;12.840;2022-12-13T08:08:29;10.30;69.30
19050;DHT22;9657;45.940;12.840;2022-12-13T08:10:59;10.30;69.20
19050;DHT22;9657;45.940;12.840;2022-12-13T08:13:26;10.30;69.20
19050;DHT22;9657;45.940;12.840;2022-12-13T08:15:57;10.30;69.20
19050;DHT22;9657;45.940;12.840;2022-12-13T08:18:25;10.30;69.30
19050;DHT22;9657;45.940;12.840;2022-12-13T08:20:52;10.30;69.20
19050;DHT22;9657;45.940;12.840;2022-12-13T08:23:22;10.30;69.20
19050;DHT22;9657;45.940;12.840;2022-12-13T08:25:52;10.30;69.20
19050;DHT22;9657;45.940;12.840;2022-12-13T08:28:19;10.30;69.20
19050;DHT22;9657;45.940;12.840;2022-12-13T08:30:47;10.30;69.20
19050;DHT22;9657;45.940;12.840;2022-12-13T08:33:14;10.30;69.20
19050;DHT22;9657;45.940;12.840;2022-12-13T08:35:41;10.30;69.20
19050;DHT22;9657;45.940;12.840;2022-12-13T08:38:08;10.30;69.10
19050;DHT22;9657;45.940;12.840;2022-12-13T08:40:35;10.30;69.10
19050;DHT22;9657;45.940;12.840;2022-12-13T08:43:04;10.30;69.00
19050;DHT22;9657;45.940;12.840;2022-12-13T08:45:31;10.30;69.00
19050;DHT22;9657;45.940;12.840;2022-12-13T08:48:00;10.30;68.90
19050;DHT22;9657;45.940;12.840;2022-12-13T08:50:29;10.30;69.00
19050;DHT22;9657;45.940;12.840;2022-12-13T08:52:56;10.30;69.00
19050;DHT22;9657;45.940;12.840;2022-12-13T08:55:24;10.30;68.90
19050;DHT22;9657;45.940;12.840;2022-12-13T08:57:51;10.30;68.80
19050;DHT22;9657;45.940;12.840;2022-12-13T09:00:19;10.30;68.80
19050;DHT22;9657;45.940;12.840;2022-12-13T09:02:47;10.30;68.80
19050;DHT22;9657;45.940;12.840;2022-12-13T09:05:14;10.30;68.80
19050;DHT22;9657;45.940;12.840;2022-12-13T09:07:41;10.30;68.80
19050;DHT22;9657;45.940;12.840;2022-12-13T09:10:09;10.30;68.80
19050;DHT22;9657;45.940;12.840;2022-12-13T09:12:40;10.30;68.80
19050;DHT22;9657;45.940;12.840;2022-12-13T09:15:08;10.30;68.80
19050;DHT22;9657;45.940;12.840;2022-12-13T09:17:36;10.20;68.60
19050;DHT22;9657;45.940;12.840;2022-12-13T09:20:06;10.20;68.70
19050;DHT22;9657;45.940;12.840;2022-12-13T09:22:34;10.20;68.70
19050;DHT22;9657;45.940;12.840;2022-12-13T09:25:01;10.20;68.60
19050;DHT22;9657;45.940;12.840;2022-12-13T09:27:28;10.20;68.60
19050;DHT22;9657;45.940;12.840;2022-12-13T09:29:56;10.30;68.70
19050;DHT22;9657;45.940;12.840;2022-12-13T09:32:23;10.20;68.60
19050;DHT22;9657;45.940;12.840;2022-12-13T09:34:51;10.20;68.60
19050;DHT22;9657;45.940;12.840;2022-12-13T09:37:19;10.20;68.60
19050;DHT22;9657;45.940;12.840;2022-12-13T09:39:46;10.20;68.60
19050;DHT22;9657;45.940;12.840;2022-12-13T09:42:17;10.20;68.60
19050;DHT22;9657;45.940;12.840;2022-12-13T09:44:50;10.20;68.60
19050;DHT22;9657;45.940;12.840;2022-12-13T09:47:26;10.20;68.50
19050;DHT22;9657;45.940;12.840;2022-12-13T09:49:58;10.20;68.50
19050;DHT22;9657;45.940;12.840;2022-12-13T09:52:28;10.20;68.50
19050;DHT22;9657;45.940;12.840;2022-12-13T09:54:56;10.20;68.50
19050;DHT22;9657;45.940;12.840;2022-12-13T09:57:27;10.20;68.60
19050;DHT22;9657;45.940;12.840;2022-12-13T09:59:55;10.20;68.50
19050;DHT22;9657;45.940;12.840;2022-12-13T10:02:24;10.20;68.50
19050;DHT22;9657;45.940;12.840;2022-12-13T10:04:52;10.20;68.50
19050;DHT22;9657;45.940;12.840;2022-12-13T10:07:22;10.20;68.50
19050;DHT22;9657;45.940;12.840;2022-12-13T10:09:55;10.20;68.50
19050;DHT22;9657;45.940;12.840;2022-12-13T10:12:25;10.20;68.50
19050;DHT22;9657;45.940;12.840;2022-12-13T10:14:56;10.20;68.50
19050;DHT22;9657;45.940;12.840;2022-12-13T10:17:27;10.20;68.50
19050;DHT22;9657;45.940;12.840;2022-12-13T10:19:57;10.20;68.50
19050;DHT22;9657;45.940;12.840;2022-12-13T10:22:26;10.20;68.50
19050;DHT22;9657;45.940;12.840;2022-12-13T10:24:54;10.20;68.50
19050;DHT22;9657;45.940;12.840;2022-12-13T10:27:27;10.20;68.50
19050;DHT22;9657;45.940;12.840;2022-12-13T10:30:07;10.20;68.40
19050;DHT22;9657;45.940;12.840;2022-12-13T10:32:43;10.20;68.40
19050;DHT22;9657;45.940;12.840;2022-12-13T10:35:20;10.20;68.40
19050;DHT22;9657;45.940;12.840;2022-12-13T10:37:49;10.20;68.40
19050;DHT22;9657;45.940;12.840;2022-12-13T10:40:30;10.20;68.40
19050;DHT22;9657;45.940;12.840;2022-12-13T10:43:11;10.20;68.40
19050;DHT22;9657;45.940;12.840;2022-12-13T10:45:38;10.20;68.40
19050;DHT22;9657;45.940;12.840;2022-12-13T10:48:17;10.20;68.50
19050;DHT22;9657;45.940;12.840;2022-12-13T10:50:55;10.20;68.30
19050;DHT22;9657;45.940;12.840;2022-12-13T10:53:28;10.20;68.40
19050;DHT22;9657;45.940;12.840;2022-12-13T10:55:56;10.20;68.40
19050;DHT22;9657;45.940;12.840;2022-12-13T10:58:34;10.20;68.40
19050;DHT22;9657;45.940;12.840;2022-12-13T11:01:09;10.20;68.40
19050;DHT22;9657;45.940;12.840;2022-12-13T11:03:36;10.20;68.40
19050;DHT22;9657;45.940;12.840;2022-12-13T11:06:04;10.20;68.40
19050;DHT22;9657;45.940;12.840;2022-12-13T11:08:33;10.20;68.40
19050;DHT22;9657;45.940;12.840;2022-12-13T11:11:02;10.20;68.40
19050;DHT22;9657;45.940;12.840;2022-12-13T11:13:35;10.20;68.40
19050;DHT22;9657;45.940;12.840;2022-12-13T11:16:13;10.20;68.30
19050;DHT22;9657;45.940;12.840;2022-12-13T11:18:41;10.20;68.40
19050;DHT22;9657;45.940;12.840;2022-12-13T11:21:08;10.20;68.30
19050;DHT22;9657;45.940;12.840;2022-12-13T11:23:38;10.20;68.40
19050;DHT22;9657;45.940;12.840;2022-12-13T11:26:13;10.20;68.40
19050;DHT22;9657;45.940;12.840;2022-12-13T11:29:03;10.20;68.40
19050;DHT22;9657;45.940;12.840;2022-12-13T11:31:47;10.20;68.20
19050;DHT22;9657;45.940;12.840;2022-12-13T11:34:24;10.20;68.30
19050;DHT22;9657;45.940;12.840;2022-12-13T11:37:02;10.20;68.30
19050;DHT22;9657;45.940;12.840;2022-12-13T11:39:36;10.10;68.30
19050;DHT22;9657;45.940;12.840;2022-12-13T11:42:12;10.20;68.50
19050;DHT22;9657;45.940;12.840;2022-12-13T11:44:46;10.20;68.50
19050;DHT22;9657;45.940;12.840;2022-12-13T11:47:21;10.20;68.50
19050;DHT22;9657;45.940;12.840;2022-12-13T11:49:50;10.20;68.50
19050;DHT22;9657;45.940;12.840;2022-12-13T11:52:22;10.20;68.60
19050;DHT22;9657;45.940;12.840;2022-12-13T11:54:57;10.20;68.60
19050;DHT22;9657;45.940;12.840;2022-12-13T11:57:36;10.20;68.50
19050;DHT22;9657;45.940;12.840;2022-12-13T12:00:09;10.20;68.60
19050;DHT22;9657;45.940;12.840;2022-12-13T12:02:47;10.20;68.50
19050;DHT22;9657;45.940;12.840;2022-12-13T12:05:25;10.10;68.50
19050;DHT22;9657;45.940;12.840;2022-12-13T12:07:56;10.20;68.50
19050;DHT22;9657;45.940;12.840;2022-12-13T12:10:31;10.10;68.50
19050;DHT22;9657;45.940;12.840;2022-12-13T12:13:05;10.10;68.50
19050;DHT22;9657;45.940;12.840;2022-12-13T12:15:37;10.20;68.50
19050;DHT22;9657;45.940;12.840;2022-12-13T12:18:10;10.10;68.50
19050;DHT22;9657;45.940;12.840;2022-12-13T12:20:45;10.10;68.60
19050;DHT22;9657;45.940;12.840;2022-12-13T12:23:25;10.10;68.60
19050;DHT22;9657;45.940;12.840;2022-12-13T12:25:59;10.10;68.50
19050;DHT22;9657;45.940;12.840;2022-12-13T12:28:51;10.20;68.60
19050;DHT22;9657;45.940;12.840;2022-12-13T12:31:27;10.10;68.50
19050;DHT22;9657;45.940;12.840;2022-12-13T12:34:00;10.10;68.50
19050;DHT22;9657;45.940;12.840;2022-12-13T12:36:48;10.10;68.50
19050;DHT22;9657;45.940;12.840;2022-12-13T12:39:42;10.10;68.50
19050;DHT22;9657;45.940;12.840;2022-12-13T12:42:26;10.10;68.50
19050;DHT22;9657;45.940;12.840;2022-12-13T12:45:04;10.10;68.50
19050;DHT22;9657;45.940;12.840;2022-12-13T12:47:42;10.10;68.50
19050;DHT22;9657;45.940;12.840;2022-12-13T12:53:23;10.10;68.50
19050;DHT22;9657;45.940;12.840;2022-12-13T12:56:03;10.10;68.50
19050;DHT22;9657;45.940;12.840;2022-12-13T12:58:39;10.10;68.50
19050;DHT22;9657;45.940;12.840;2022-12-13T13:01:20;10.10;68.50
19050;DHT22;9657;45.940;12.840;2022-12-13T13:03:51;10.10;68.50
19050;DHT22;9657;45.940;12.840;2022-12-13T13:06:23;10.10;68.50
19050;DHT22;9657;45.940;12.840;2022-12-13T13:08:55;10.10;68.50
19050;DHT22;9657;45.940;12.840;2022-12-13T13:11:26;10.10;68.50
19050;DHT22;9657;45.940;12.840;2022-12-13T13:14:23;10.10;68.50
19050;DHT22;9657;45.940;12.840;2022-12-13T13:16:50;10.10;68.50
19050;DHT22;9657;45.940;12.840;2022-12-13T13:19:42;10.10;68.50
19050;DHT22;9657;45.940;12.840;2022-12-13T13:22:31;10.10;68.50
19050;DHT22;9657;45.940;12.840;2022-12-13T13:25:17;10.20;68.50
19050;DHT22;9657;45.940;12.840;2022-12-13T13:27:48;10.10;68.40
19050;DHT22;9657;45.940;12.840;2022-12-13T13:30:20;10.10;69.00
19050;DHT22;9657;45.940;12.840;2022-12-13T13:32:48;10.10;68.50
19050;DHT22;9657;45.940;12.840;2022-12-13T13:35:48;10.10;68.50
19050;DHT22;9657;45.940;12.840;2022-12-13T13:41:54;10.10;68.50
19050;DHT22;9657;45.940;12.840;2022-12-13T13:47:40;10.10;68.50
19050;DHT22;9657;45.940;12.840;2022-12-13T13:50:26;10.10;68.40
19050;DHT22;9657;45.940;12.840;2022-12-13T13:53:04;10.10;68.40
19050;DHT22;9657;45.940;12.840;2022-12-13T13:55:42;10.10;68.40
19050;DHT22;9657;45.940;12.840;2022-12-13T14:01:37;10.10;68.40
19050;DHT22;9657;45.940;12.840;2022-12-13T14:07:39;10.10;68.40
19050;DHT22;9657;45.940;12.840;2022-12-13T14:10:33;10.10;68.40
19050;DHT22;9657;45.940;12.840;2022-12-13T14:13:27;10.10;68.40
19050;DHT22;9657;45.940;12.840;2022-12-13T14:16:27;10.10;68.40
19050;DHT22;9657;45.940;12.840;2022-12-13T14:22:22;10.10;68.40
19050;DHT22;9657;45.940;12.840;2022-12-13T14:25:03;10.10;68.40
19050;DHT22;9657;45.940;12.840;2022-12-13T14:27:40;10.10;68.40
19050;DHT22;9657;45.940;12.840;2022-12-13T14:30:12;10.10;68.40
19050;DHT22;9657;45.940;12.840;2022-12-13T14:32:40;10.10;68.40
19050;DHT22;9657;45.940;12.840;2022-12-13T14:35:21;10.10;68.40
19050;DHT22;9657;45.940;12.840;2022-12-13T14:37:55;10.10;68.40
19050;DHT22;9657;45.940;12.840;2022-12-13T14:40:29;10.10;68.40
19050;DHT22;9657;45.940;12.840;2022-12-13T14:42:57;10.10;68.40
19050;DHT22;9657;45.940;12.840;2022-12-13T14:45:26;10.10;68.40
19050;DHT22;9657;45.940;12.840;2022-12-13T14:47:55;10.10;68.40
19050;DHT22;9657;45.940;12.840;2022-12-13T14:50:24;10.10;68.40
19050;DHT22;9657;45.940;12.840;2022-12-13T14:52:53;10.10;68.40
19050;DHT22;9657;45.940;12.840;2022-12-13T14:55:25;10.10;68.40
19050;DHT22;9657;45.940;12.840;2022-12-13T14:57:54;10.10;68.40
19050;DHT22;9657;45.940;12.840;2022-12-13T15:00:28;10.10;68.40
19050;DHT22;9657;45.940;12.840;2022-12-13T15:02:58;10.10;68.40
19050;DHT22;9657;45.940;12.840;2022-12-13T15:05:27;10.10;68.40
19050;DHT22;9657;45.940;12.840;2022-12-13T15:07:55;10.00;68.30
19050;DHT22;9657;45.940;12.840;2022-12-13T15:10:33;10.10;68.40
19050;DHT22;9657;45.940;12.840;2022-12-13T15:13:04;10.00;68.30
19050;DHT22;9657;45.940;12.840;2022-12-13T15:15:33;10.10;68.40
19050;DHT22;9657;45.940;12.840;2022-12-13T15:18:05;10.00;68.30
19050;DHT22;9657;45.940;12.840;2022-12-13T15:20:37;10.00;68.30
19050;DHT22;9657;45.940;12.840;2022-12-13T15:23:11;10.10;68.30
19050;DHT22;9657;45.940;12.840;2022-12-13T15:25:42;10.00;68.30
19050;DHT22;9657;45.940;12.840;2022-12-13T15:28:10;10.00;68.30
19050;DHT22;9657;45.940;12.840;2022-12-13T15:30:39;10.00;68.30
19050;DHT22;9657;45.940;12.840;2022-12-13T15:33:15;10.00;68.30
19050;DHT22;9657;45.940;12.840;2022-12-13T15:35:43;10.00;68.20
19050;DHT22;9657;45.940;12.840;2022-12-13T15:38:12;10.00;68.30
19050;DHT22;9657;45.940;12.840;2022-12-13T15:40:44;10.00;68.30
19050;DHT22;9657;45.940;12.840;2022-12-13T15:43:14;10.00;68.30
19050;DHT22;9657;45.940;12.840;2022-12-13T15:45:44;10.00;68.20
19050;DHT22;9657;45.940;12.840;2022-12-13T15:48:21;10.00;68.30
19050;DHT22;9657;45.940;12.840;2022-12-13T15:51:04;10.00;68.20
19050;DHT22;9657;45.940;12.840;2022-12-13T15:53:32;10.00;68.20
19050;DHT22;9657;45.940;12.840;2022-12-13T15:56:01;10.00;68.30
19050;DHT22;9657;45.940;12.840;2022-12-13T15:58:31;10.00;68.20
19050;DHT22;9657;45.940;12.840;2022-12-13T16:01:00;10.00;68.20
19050;DHT22;9657;45.940;12.840;2022-12-13T16:03:38;10.00;68.10
19050;DHT22;9657;45.940;12.840;2022-12-13T16:06:06;10.00;68.10
19050;DHT22;9657;45.940;12.840;2022-12-13T16:08:37;10.00;68.20
19050;DHT22;9657;45.940;12.840;2022-12-13T16:11:07;10.00;68.20
19050;DHT22;9657;45.940;12.840;2022-12-13T16:13:36;10.00;68.10
19050;DHT22;9657;45.940;12.840;2022-12-13T16:16:19;10.00;68.20
19050;DHT22;9657;45.940;12.840;2022-12-13T16:18:51;10.00;68.10